createdAt,value
2023-05-06T00:00:13.081Z,19.37
2023-05-06T00:02:44.157Z,19.28
2023-05-06T00:05:12.744Z,19.31
2023-05-06T00:07:41.852Z,19.31
2023-05-06T00:10:11.833Z,19.33
2023-05-06T00:12:40.148Z,19.25
2023-05-06T00:15:09.231Z,19.18
2023-05-06T00:17:37.834Z,19.11
2023-05-06T00:20:07.736Z,19.15
2023-05-06T00:22:36.282Z,19.16
2023-05-06T00:25:05.284Z,19.18
2023-05-06T00:27:34.786Z,19.15
2023-05-06T00:30:03.117Z,19.13
2023-05-06T00:32:31.668Z,19.09
2023-05-06T00:34:59.844Z,19.11
2023-05-06T00:37:28.152Z,19.08
2023-05-06T00:39:56.758Z,19.09
2023-05-06T00:42:25.001Z,19.12
2023-05-06T00:44:54.363Z,19.13
2023-05-06T00:47:23.228Z,19.13
2023-05-06T00:49:51.853Z,19.17
2023-05-06T00:52:21.157Z,19.12
2023-05-06T00:54:50.539Z,19.12
2023-05-06T00:57:19.041Z,19.11
2023-05-06T00:59:47.287Z,19.08
2023-05-06T01:02:17.565Z,19.09
2023-05-06T01:04:45.857Z,19.06
2023-05-06T01:07:24.726Z,19.07
2023-05-06T01:09:57.083Z,19.11
2023-05-06T01:12:30.686Z,19.11
2023-05-06T01:15:09.042Z,19.13
2023-05-06T01:17:44.648Z,19.12
2023-05-06T01:20:15.356Z,19.10
2023-05-06T01:22:43.553Z,19.11
2023-05-06T01:25:20.780Z,19.10
2023-05-06T01:27:49.710Z,19.10
2023-05-06T01:30:19.356Z,19.09
2023-05-06T01:32:59.009Z,19.09
2023-05-06T01:35:36.686Z,19.09
2023-05-06T01:38:12.935Z,19.11
2023-05-06T01:40:45.132Z,19.13
2023-05-06T01:43:14.565Z,19.13
2023-05-06T01:45:49.476Z,19.13
2023-05-06T01:48:18.173Z,19.17
2023-05-06T01:50:46.782Z,19.19
2023-05-06T01:53:14.837Z,19.22
2023-05-06T01:55:44.205Z,19.21
2023-05-06T01:58:12.486Z,19.21
2023-05-06T02:00:42.565Z,19.17
2023-05-06T02:03:11.015Z,19.18
2023-05-06T02:05:39.365Z,19.23
2023-05-06T02:08:07.481Z,19.28
2023-05-06T02:10:36.063Z,19.31
2023-05-06T02:13:05.732Z,19.31
2023-05-06T02:15:33.879Z,19.27
2023-05-06T02:18:02.531Z,19.22
2023-05-06T02:20:30.755Z,19.22
2023-05-06T02:22:58.815Z,19.24
2023-05-06T02:25:30.394Z,19.26
2023-05-06T02:27:58.521Z,19.29
2023-05-06T02:30:30.543Z,19.29
2023-05-06T02:32:58.782Z,19.26
2023-05-06T02:35:27.215Z,19.23
2023-05-06T02:37:55.385Z,19.22
2023-05-06T02:40:23.376Z,19.18
2023-05-06T02:42:51.780Z,19.07
2023-05-06T02:45:39.754Z,19.08
2023-05-06T02:48:26.675Z,19.06
2023-05-06T02:50:54.726Z,19.05
2023-05-06T02:53:23.412Z,19.00
2023-05-06T02:56:00.193Z,19.02
2023-05-06T02:58:29.007Z,19.07
2023-05-06T03:01:01.489Z,19.08
2023-05-06T03:03:29.961Z,18.97
2023-05-06T03:05:58.038Z,18.94
2023-05-06T03:08:26.496Z,18.72
2023-05-06T03:10:55.816Z,18.73
2023-05-06T03:13:24.167Z,18.73
2023-05-06T03:15:53.800Z,18.69
2023-05-06T03:18:23.677Z,18.73
2023-05-06T03:20:51.870Z,18.80
2023-05-06T03:23:20.278Z,18.71
2023-05-06T03:25:49.176Z,18.71
2023-05-06T03:28:18.484Z,18.75
2023-05-06T03:30:47.504Z,18.66
2023-05-06T03:33:16.705Z,18.64
2023-05-06T03:35:46.234Z,18.65
2023-05-06T03:38:14.594Z,18.63
2023-05-06T03:40:43.446Z,18.66
2023-05-06T03:43:11.714Z,18.62
2023-05-06T03:45:40.013Z,18.69
2023-05-06T03:48:08.879Z,18.69
2023-05-06T03:50:37.815Z,18.68
2023-05-06T03:53:07.314Z,18.70
2023-05-06T03:55:38.405Z,18.66
2023-05-06T03:58:07.386Z,18.53
2023-05-06T04:00:36.233Z,18.47
2023-05-06T04:03:04.901Z,18.43
2023-05-06T04:05:33.975Z,18.36
2023-05-06T04:08:03.096Z,18.27
2023-05-06T04:10:32.992Z,18.28
2023-05-06T04:13:02.166Z,18.22
2023-05-06T04:15:32.821Z,18.27
2023-05-06T04:18:01.936Z,18.26
2023-05-06T04:20:30.554Z,18.26
2023-05-06T04:22:58.580Z,18.27
2023-05-06T04:25:27.995Z,18.32
2023-05-06T04:27:57.447Z,18.34
2023-05-06T04:30:25.929Z,18.36
2023-05-06T04:32:54.662Z,18.34
2023-05-06T04:35:23.596Z,18.36
2023-05-06T04:37:53.861Z,18.42
2023-05-06T04:40:26.403Z,18.48
2023-05-06T04:42:55.730Z,18.48
2023-05-06T04:45:27.308Z,18.52
2023-05-06T04:47:55.998Z,18.51
2023-05-06T04:50:25.400Z,18.54
2023-05-06T04:52:55.064Z,18.56
2023-05-06T04:55:23.786Z,18.52
2023-05-06T04:57:52.354Z,18.49
2023-05-06T05:00:21.037Z,18.56
2023-05-06T05:02:50.810Z,18.49
2023-05-06T05:05:19.638Z,18.37
2023-05-06T05:07:48.644Z,18.45
2023-05-06T05:10:17.565Z,18.47
2023-05-06T05:12:46.599Z,18.58
2023-05-06T05:15:15.335Z,18.69
2023-05-06T05:17:43.630Z,18.69
2023-05-06T05:20:13.979Z,18.71
2023-05-06T05:22:42.700Z,18.83
2023-05-06T05:25:14.614Z,18.93
2023-05-06T05:27:43.902Z,18.99
2023-05-06T05:30:12.651Z,19.05
2023-05-06T05:32:41.278Z,19.10
2023-05-06T05:35:10.763Z,19.17
2023-05-06T05:37:40.675Z,19.14
2023-05-06T05:40:10.564Z,19.22
2023-05-06T05:42:40.003Z,19.09
2023-05-06T05:45:10.099Z,19.17
2023-05-06T05:47:38.493Z,19.13
2023-05-06T05:50:08.655Z,19.23
2023-05-06T05:52:41.073Z,19.36
2023-05-06T05:55:10.680Z,19.27
2023-05-06T05:57:39.639Z,19.38
2023-05-06T06:00:10.575Z,19.47
2023-05-06T06:02:46.001Z,19.68
2023-05-06T06:05:15.293Z,19.83
2023-05-06T06:07:45.402Z,19.99
2023-05-06T06:10:15.589Z,20.06
2023-05-06T06:12:45.018Z,20.27
2023-05-06T06:15:14.234Z,20.34
2023-05-06T06:17:43.655Z,20.37
2023-05-06T06:20:14.397Z,20.26
2023-05-06T06:22:44.892Z,20.16
2023-05-06T06:25:13.807Z,20.17
2023-05-06T06:27:42.907Z,20.07
2023-05-06T06:30:11.920Z,20.00
2023-05-06T06:32:49.109Z,19.98
2023-05-06T06:35:17.907Z,20.02
2023-05-06T06:37:49.365Z,20.15
2023-05-06T06:40:18.449Z,19.98
2023-05-06T06:42:48.199Z,20.18
2023-05-06T06:45:19.979Z,20.26
2023-05-06T06:47:48.418Z,20.42
2023-05-06T06:50:16.753Z,20.45
2023-05-06T06:52:45.857Z,20.60
2023-05-06T06:55:15.872Z,20.71
2023-05-06T06:57:44.079Z,20.76
2023-05-06T07:00:13.372Z,20.66
2023-05-06T07:02:42.033Z,20.10
2023-05-06T07:05:11.059Z,20.26
2023-05-06T07:07:39.461Z,20.20
2023-05-06T07:10:09.055Z,20.14
2023-05-06T07:12:38.672Z,20.35
2023-05-06T07:15:09.140Z,20.70
2023-05-06T07:17:37.717Z,20.97
2023-05-06T07:20:07.245Z,21.19
2023-05-06T07:22:35.827Z,21.24
2023-05-06T07:25:04.265Z,21.40
2023-05-06T07:27:32.265Z,21.59
2023-05-06T07:30:01.664Z,21.50
2023-05-06T07:32:30.440Z,21.49
2023-05-06T07:34:58.517Z,21.69
2023-05-06T07:39:54.890Z,21.57
2023-05-06T07:42:22.960Z,21.71
2023-05-06T07:47:29.838Z,21.95
2023-05-06T07:49:58.537Z,22.01
2023-05-06T07:52:27.661Z,22.11
2023-05-06T07:54:55.787Z,22.32
2023-05-06T07:57:23.936Z,22.53
2023-05-06T07:59:53.487Z,22.55
2023-05-06T08:02:21.935Z,22.69
2023-05-06T08:04:52.100Z,22.58
2023-05-06T08:07:20.497Z,21.94
2023-05-06T08:09:48.693Z,22.06
2023-05-06T08:12:17.608Z,22.34
2023-05-06T08:14:46.689Z,22.22
2023-05-06T08:17:15.276Z,22.54
2023-05-06T08:19:43.664Z,22.37
2023-05-06T08:22:13.170Z,22.07
2023-05-06T08:24:41.231Z,22.08
2023-05-06T08:27:09.642Z,21.84
2023-05-06T08:29:37.675Z,21.72
2023-05-06T08:32:06.634Z,22.01
2023-05-06T08:34:35.128Z,22.42
2023-05-06T08:37:03.351Z,22.46
2023-05-06T08:39:33.418Z,22.29
2023-05-06T08:42:03.140Z,22.37
2023-05-06T08:44:31.494Z,22.49
2023-05-06T08:46:59.789Z,22.61
2023-05-06T08:49:29.279Z,22.88
2023-05-06T08:52:00.927Z,22.85
2023-05-06T08:54:29.549Z,23.33
2023-05-06T08:57:01.399Z,23.21
2023-05-06T08:59:32.744Z,23.53
2023-05-06T09:02:01.638Z,23.49
2023-05-06T09:04:30.482Z,23.13
2023-05-06T09:06:59.819Z,23.22
2023-05-06T09:09:28.054Z,23.35
2023-05-06T09:11:57.585Z,23.18
2023-05-06T09:14:27.136Z,23.08
2023-05-06T09:16:55.163Z,22.81
2023-05-06T09:19:25.933Z,22.73
2023-05-06T09:21:54.432Z,22.94
2023-05-06T09:24:22.529Z,22.87
2023-05-06T09:26:52.528Z,23.18
2023-05-06T09:29:20.750Z,23.48
2023-05-06T09:31:52.681Z,23.36
2023-05-06T09:34:21.938Z,23.51
2023-05-06T09:36:50.177Z,23.28
2023-05-06T09:39:18.198Z,23.32
2023-05-06T09:41:46.818Z,23.69
2023-05-06T09:44:14.924Z,23.58
2023-05-06T09:46:43.579Z,23.72
2023-05-06T09:49:15.132Z,23.74
2023-05-06T09:51:47.818Z,23.87
2023-05-06T09:54:18.866Z,24.18
2023-05-06T09:56:48.385Z,24.12
2023-05-06T09:59:18.582Z,23.98
2023-05-06T10:01:47.075Z,23.99
2023-05-06T10:04:18.920Z,24.54
2023-05-06T10:06:50.873Z,24.97
2023-05-06T10:09:20.288Z,25.20
2023-05-06T10:11:49.140Z,25.29
2023-05-06T10:14:17.547Z,24.95
2023-05-06T10:16:47.047Z,24.98
2023-05-06T10:19:19.748Z,24.86
2023-05-06T10:22:07.433Z,24.69
2023-05-06T10:24:47.681Z,24.78
2023-05-06T10:27:24.437Z,24.58
2023-05-06T10:29:54.453Z,24.68
2023-05-06T10:32:22.881Z,24.41
2023-05-06T10:34:57.068Z,24.02
2023-05-06T10:37:30.068Z,24.05
2023-05-06T10:39:58.787Z,24.21
2023-05-06T10:42:29.210Z,24.44
2023-05-06T10:44:58.860Z,24.70
2023-05-06T10:47:27.630Z,24.77
2023-05-06T10:50:22.710Z,24.91
2023-05-06T10:52:53.264Z,25.05
2023-05-06T10:55:30.118Z,25.05
2023-05-06T10:58:03.302Z,24.79
2023-05-06T11:00:35.674Z,24.72
2023-05-06T11:03:06.770Z,24.50
2023-05-06T11:05:47.852Z,24.61
2023-05-06T11:08:16.875Z,24.46
2023-05-06T11:10:45.069Z,24.50
2023-05-06T11:13:21.571Z,24.60
2023-05-06T11:15:52.148Z,24.29
2023-05-06T11:18:43.178Z,24.29
2023-05-06T11:21:38.805Z,23.99
2023-05-06T11:24:11.442Z,23.79
2023-05-06T11:26:43.860Z,23.85
2023-05-06T11:29:12.027Z,23.61
2023-05-06T11:31:43.193Z,23.62
2023-05-06T11:34:14.194Z,23.56
2023-05-06T11:36:53.342Z,23.61
2023-05-06T11:39:21.491Z,23.66
2023-05-06T11:41:50.095Z,23.91
2023-05-06T11:44:29.493Z,24.29
2023-05-06T11:47:03.145Z,24.24
2023-05-06T11:49:31.532Z,24.42
2023-05-06T11:52:01.461Z,24.74
2023-05-06T11:54:29.724Z,24.57
2023-05-06T11:56:58.052Z,24.81
2023-05-06T11:59:32.030Z,25.00
2023-05-06T12:02:01.869Z,25.25
2023-05-06T12:04:38.999Z,25.31
2023-05-06T12:07:11.034Z,25.33
2023-05-06T12:09:41.814Z,25.45
2023-05-06T12:12:11.798Z,25.51
2023-05-06T12:14:41.174Z,25.87
2023-05-06T12:17:09.403Z,26.22
2023-05-06T12:19:37.711Z,26.29
2023-05-06T12:22:18.107Z,25.99
2023-05-06T12:24:46.455Z,25.84
2023-05-06T12:27:15.063Z,25.98
2023-05-06T12:29:53.041Z,26.05
2023-05-06T12:32:21.962Z,26.10
2023-05-06T12:34:50.005Z,26.28
2023-05-06T12:37:28.220Z,25.96
2023-05-06T12:40:08.427Z,26.48
2023-05-06T12:42:36.602Z,26.52
2023-05-06T12:45:15.524Z,26.80
2023-05-06T12:47:53.805Z,26.60
2023-05-06T12:50:38.666Z,26.55
2023-05-06T12:53:09.552Z,25.97
2023-05-06T12:55:38.787Z,25.68
2023-05-06T12:58:16.403Z,25.14
2023-05-06T13:00:44.945Z,25.14
2023-05-06T13:03:14.364Z,25.31
2023-05-06T13:05:42.585Z,25.49
2023-05-06T13:08:12.199Z,25.69
2023-05-06T13:10:40.254Z,25.76
2023-05-06T13:13:08.398Z,25.89
2023-05-06T13:15:36.847Z,25.93
2023-05-06T13:18:05.585Z,25.21
2023-05-06T13:20:33.731Z,25.09
2023-05-06T13:23:02.107Z,25.05
2023-05-06T13:25:31.410Z,25.50
2023-05-06T13:27:59.344Z,25.60
2023-05-06T13:30:28.146Z,26.03
2023-05-06T13:32:56.255Z,26.00
2023-05-06T13:35:26.550Z,25.88
2023-05-06T13:37:55.103Z,25.81
2023-05-06T13:40:23.416Z,25.33
2023-05-06T13:42:52.773Z,25.11
2023-05-06T13:45:21.627Z,24.97
2023-05-06T13:47:51.356Z,24.80
2023-05-06T13:50:20.134Z,25.01
2023-05-06T13:52:48.595Z,25.36
2023-05-06T13:55:18.678Z,25.74
2023-05-06T13:57:47.457Z,25.74
2023-05-06T14:00:17.865Z,25.49
2023-05-06T14:02:46.302Z,25.69
2023-05-06T14:05:15.884Z,26.15
2023-05-06T14:07:44.077Z,26.07
2023-05-06T14:10:12.413Z,26.14
2023-05-06T14:12:40.910Z,25.57
2023-05-06T14:15:10.374Z,25.61
2023-05-06T14:17:40.661Z,25.48
2023-05-06T14:20:10.080Z,25.45
2023-05-06T14:22:41.231Z,25.47
2023-05-06T14:25:11.010Z,25.27
2023-05-06T14:27:43.229Z,25.29
2023-05-06T14:30:12.065Z,25.42
2023-05-06T14:32:41.865Z,25.55
2023-05-06T14:35:11.595Z,25.51
2023-05-06T14:37:40.052Z,25.94
2023-05-06T14:40:10.116Z,26.07
2023-05-06T14:42:38.601Z,26.18
2023-05-06T14:45:07.711Z,26.03
2023-05-06T14:47:36.021Z,25.66
2023-05-06T14:50:08.992Z,25.28
2023-05-06T14:52:37.890Z,25.12
2023-05-06T14:55:07.673Z,24.98
2023-05-06T14:57:35.955Z,25.09
2023-05-06T15:00:08.730Z,25.01
2023-05-06T15:02:37.855Z,25.34
2023-05-06T15:05:09.507Z,25.47
2023-05-06T15:07:37.877Z,25.86
2023-05-06T15:10:06.900Z,26.72
2023-05-06T15:12:37.417Z,27.45
2023-05-06T15:15:07.036Z,28.14
2023-05-06T15:17:35.027Z,27.86
2023-05-06T15:20:04.405Z,27.47
2023-05-06T15:22:34.340Z,26.94
2023-05-06T15:25:03.758Z,27.13
2023-05-06T15:27:32.852Z,27.75
2023-05-06T15:30:04.236Z,28.53
2023-05-06T15:32:33.564Z,28.61
2023-05-06T15:35:04.762Z,28.03
2023-05-06T15:37:35.186Z,27.47
2023-05-06T15:40:05.199Z,26.82
2023-05-06T15:42:33.258Z,26.28
2023-05-06T15:45:01.338Z,26.01
2023-05-06T15:47:31.290Z,25.35
2023-05-06T15:49:59.969Z,24.88
2023-05-06T15:52:28.554Z,24.60
2023-05-06T15:55:00.020Z,24.19
2023-05-06T15:57:31.080Z,23.93
2023-05-06T15:59:59.470Z,23.72
2023-05-06T16:02:27.790Z,23.50
2023-05-06T16:04:56.417Z,23.39
2023-05-06T16:07:24.603Z,23.36
2023-05-06T16:09:52.827Z,23.89
2023-05-06T16:12:22.568Z,24.78
2023-05-06T16:14:52.525Z,25.32
2023-05-06T16:17:20.892Z,25.96
2023-05-06T16:19:48.952Z,25.88
2023-05-06T16:22:17.238Z,25.45
2023-05-06T16:24:45.875Z,24.87
2023-05-06T16:27:14.102Z,24.50
2023-05-06T16:29:43.421Z,24.43
2023-05-06T16:32:12.007Z,24.24
2023-05-06T16:34:40.873Z,24.05
2023-05-06T16:37:09.724Z,24.04
2023-05-06T16:39:38.002Z,24.15
2023-05-06T16:42:06.150Z,24.00
2023-05-06T16:44:34.152Z,23.80
2023-05-06T16:47:04.002Z,23.65
2023-05-06T16:49:33.726Z,23.08
2023-05-06T16:52:01.773Z,22.74
2023-05-06T16:54:30.093Z,22.71
2023-05-06T16:56:58.192Z,22.58
2023-05-06T16:59:26.410Z,22.57
2023-05-06T17:01:54.727Z,22.19
2023-05-06T17:04:25.906Z,22.14
2023-05-06T17:06:55.026Z,22.08
2023-05-06T17:09:23.643Z,21.98
2023-05-06T17:11:53.868Z,21.78
2023-05-06T17:14:22.739Z,21.45
2023-05-06T17:16:52.120Z,21.38
2023-05-06T17:19:20.797Z,21.56
2023-05-06T17:21:53.586Z,22.03
2023-05-06T17:24:21.864Z,22.38
2023-05-06T17:26:50.557Z,22.42
2023-05-06T17:29:19.355Z,22.31
2023-05-06T17:31:47.448Z,22.17
2023-05-06T17:34:16.125Z,21.88
2023-05-06T17:36:44.732Z,21.67
2023-05-06T17:39:15.220Z,21.40
2023-05-06T17:41:44.208Z,21.21
2023-05-06T17:44:12.646Z,20.99
2023-05-06T17:46:41.060Z,20.59
2023-05-06T17:49:10.046Z,20.36
2023-05-06T17:51:41.278Z,19.94
2023-05-06T17:54:10.365Z,19.83
2023-05-06T17:56:41.302Z,19.67
2023-05-06T17:59:11.527Z,19.59
2023-05-06T18:01:41.449Z,19.55
2023-05-06T18:04:12.281Z,19.29
2023-05-06T18:06:43.248Z,19.28
2023-05-06T18:09:24.711Z,19.29
2023-05-06T18:11:59.034Z,19.30
2023-05-06T18:14:28.802Z,19.26
2023-05-06T18:16:58.683Z,19.20
2023-05-06T18:19:27.368Z,19.14
2023-05-06T18:22:00.068Z,19.07
2023-05-06T18:24:34.636Z,18.85
2023-05-06T18:27:06.010Z,18.71
2023-05-06T18:29:35.153Z,18.57
2023-05-06T18:32:07.334Z,18.42
2023-05-06T18:34:37.868Z,18.30
2023-05-06T18:37:08.168Z,18.20
2023-05-06T18:39:41.961Z,18.17
2023-05-06T18:42:11.780Z,18.05
2023-05-06T18:44:39.867Z,18.01
2023-05-06T18:47:07.944Z,17.99
2023-05-06T18:49:36.511Z,17.80
2023-05-06T18:52:05.223Z,17.73
2023-05-06T18:54:33.492Z,17.68
2023-05-06T18:57:02.258Z,17.68
2023-05-06T18:59:31.723Z,17.67
2023-05-06T19:01:59.703Z,17.66
2023-05-06T19:04:28.186Z,17.69
2023-05-06T19:06:56.372Z,17.74
2023-05-06T19:09:24.657Z,17.71
2023-05-06T19:11:52.993Z,17.69
2023-05-06T19:14:25.462Z,17.61
2023-05-06T19:16:55.453Z,17.53
2023-05-06T19:19:23.586Z,17.60
2023-05-06T19:21:51.740Z,17.48
2023-05-06T19:24:20.132Z,17.54
2023-05-06T19:26:48.229Z,17.44
2023-05-06T19:29:16.310Z,17.46
2023-05-06T19:31:45.194Z,17.51
2023-05-06T19:34:14.602Z,17.58
2023-05-06T19:36:42.669Z,17.55
2023-05-06T19:39:10.983Z,17.60
2023-05-06T19:41:40.538Z,17.54
2023-05-06T19:44:08.897Z,17.63
2023-05-06T19:46:37.157Z,17.62
2023-05-06T19:49:05.301Z,17.67
2023-05-06T19:51:34.619Z,17.64
2023-05-06T19:54:03.017Z,17.32
2023-05-06T19:56:31.102Z,17.47
2023-05-06T19:58:59.067Z,17.49
2023-05-06T20:01:27.522Z,17.44
2023-05-06T20:03:56.168Z,17.18
2023-05-06T20:06:24.295Z,17.22
2023-05-06T20:08:53.641Z,17.21
2023-05-06T20:11:22.200Z,17.12
2023-05-06T20:13:50.200Z,17.06
2023-05-06T20:16:18.370Z,17.17
2023-05-06T20:18:47.906Z,17.22
2023-05-06T20:21:16.744Z,17.26
2023-05-06T20:23:44.842Z,17.17
2023-05-06T20:26:14.415Z,17.13
2023-05-06T20:28:42.390Z,17.17
2023-05-06T20:31:10.416Z,17.15
2023-05-06T20:33:38.784Z,17.09
2023-05-06T20:36:06.859Z,16.95
2023-05-06T20:38:34.859Z,16.99
2023-05-06T20:41:03.648Z,17.01
2023-05-06T20:43:35.352Z,17.06
2023-05-06T20:46:03.760Z,17.06
2023-05-06T20:48:32.078Z,17.07
2023-05-06T20:51:00.232Z,17.14
2023-05-06T20:53:28.643Z,17.14
2023-05-06T20:55:57.239Z,17.18
2023-05-06T20:58:25.471Z,17.16
2023-05-06T21:00:55.270Z,17.17
2023-05-06T21:03:24.005Z,17.12
2023-05-06T21:05:53.921Z,17.16
2023-05-06T21:08:22.308Z,17.16
2023-05-06T21:10:50.383Z,17.19
2023-05-06T21:13:18.376Z,17.19
2023-05-06T21:15:46.911Z,17.19
2023-05-06T21:18:16.980Z,17.21
2023-05-06T21:20:45.458Z,17.17
2023-05-06T21:23:13.824Z,17.20
2023-05-06T21:25:41.987Z,17.14
2023-05-06T21:28:10.279Z,17.20
2023-05-06T21:30:38.836Z,17.22
2023-05-06T21:33:10.918Z,17.18
2023-05-06T21:35:40.669Z,17.21
2023-05-06T21:38:08.634Z,17.22
2023-05-06T21:40:36.825Z,17.26
2023-05-06T21:43:05.730Z,17.16
2023-05-06T21:45:33.799Z,17.15
2023-05-06T21:48:01.988Z,17.09
2023-05-06T21:50:30.498Z,17.10
2023-05-06T21:53:00.167Z,17.05
2023-05-06T21:55:28.303Z,17.05
2023-05-06T21:57:56.620Z,17.00
2023-05-06T22:00:26.029Z,17.01
2023-05-06T22:02:55.021Z,17.01
2023-05-06T22:05:23.162Z,16.96
2023-05-06T22:07:51.394Z,16.99
2023-05-06T22:10:21.099Z,16.94
2023-05-06T22:12:49.179Z,16.83
2023-05-06T22:15:17.482Z,16.80
2023-05-06T22:17:46.277Z,16.80
2023-05-06T22:20:15.166Z,16.88
2023-05-06T22:22:43.840Z,16.89
2023-05-06T22:25:12.522Z,16.88
2023-05-06T22:27:42.275Z,16.87
2023-05-06T22:30:11.733Z,16.91
2023-05-06T22:32:39.996Z,16.90
2023-05-06T22:35:10.031Z,16.83
2023-05-06T22:37:38.231Z,16.88
2023-05-06T22:40:08.137Z,16.87
2023-05-06T22:42:36.114Z,16.91
2023-05-06T22:45:06.316Z,16.83
2023-05-06T22:47:34.682Z,16.79
2023-05-06T22:50:03.024Z,16.54
2023-05-06T22:52:31.734Z,16.62
2023-05-06T22:55:00.120Z,16.69
2023-05-06T22:57:28.206Z,16.50
2023-05-06T22:59:56.251Z,16.55
2023-05-06T23:02:26.093Z,16.50
2023-05-06T23:04:54.337Z,16.55
2023-05-06T23:07:23.675Z,16.65
2023-05-06T23:09:52.172Z,16.62
2023-05-06T23:12:20.263Z,16.64
2023-05-06T23:14:48.329Z,16.61
2023-05-06T23:17:16.591Z,16.56
2023-05-06T23:19:46.091Z,16.57
2023-05-06T23:22:14.167Z,16.47
2023-05-06T23:24:42.568Z,16.35
2023-05-06T23:27:10.617Z,16.41
2023-05-06T23:29:38.698Z,16.47
2023-05-06T23:32:07.641Z,16.49
2023-05-06T23:34:35.786Z,16.38
2023-05-06T23:37:05.312Z,16.29
2023-05-06T23:39:33.616Z,16.31
2023-05-06T23:42:02.162Z,16.34
2023-05-06T23:44:30.283Z,16.34
2023-05-06T23:46:58.623Z,16.32
2023-05-06T23:49:26.656Z,16.35
2023-05-06T23:51:54.665Z,16.33
2023-05-06T23:54:24.416Z,16.24
2023-05-06T23:56:52.499Z,16.16
2023-05-06T23:59:20.531Z,16.21
